Time;durP1;ratioP1;P1;durP2;ratioP2;P2;SDS_P1;SDS_P2;PMS_P1;PMS_P2;Temp;Humidity;BMP_temperature;BMP_pressure;BME280_temperature;BME280_humidity;BME280_pressure;Samples;Min_cycle;Max_cycle;Signal;HPM_P1;HPM_P2
2024/02/03 00:42:11;;;;;;;0.88;0.88;;;;;;;9.74;54.02;100448.66;4003597;35;34104;-85
2024/02/03 01:28:14;;;;;;;3.50;1.50;;;;;;;9.31;55.52;100442.00;4147093;34;34464;-86
2024/02/03 01:30:47;;;;;;;0.98;0.95;;;;;;;9.45;55.05;100433.69;4151785;34;33601;-86
2024/02/03 01:33:16;;;;;;;1.58;1.30;;;;;;;9.64;54.61;100441.94;4158510;34;33807;-86
2024/02/03 01:35:55;;;;;;;0.75;0.75;;;;;;;9.92;53.74;100442.81;4192435;34;32920;-86
2024/02/03 01:38:51;;;;;;;1.02;0.95;;;;;;;9.92;53.89;100441.94;4184557;34;33368;-87
2024/02/03 01:42:18;;;;;;;0.88;0.88;;;;;;;9.86;53.83;100445.62;4172119;34;34082;-88
2024/02/03 01:45:45;;;;;;;1.00;0.95;;;;;;;9.75;54.09;100439.81;4177251;34;33195;-88
2024/02/03 01:48:41;;;;;;;2.55;0.85;;;;;;;10.02;53.67;100438.13;4181946;34;33521;-88
2024/02/03 01:56:22;;;;;;;1.25;1.12;;;;;;;10.07;53.06;100441.47;4115571;34;34665;-87
2024/02/03 02:49:18;;;;;;;0.70;0.70;;;;;;;9.94;54.14;100355.72;4188054;34;35072;-89
2024/02/03 02:51:56;;;;;;;0.77;0.77;;;;;;;9.71;54.54;100356.44;4178256;34;33354;-89
2024/02/03 02:54:32;;;;;;;2.95;1.33;;;;;;;9.68;54.51;100359.16;4182556;34;33554;-90
2024/02/03 02:57:20;;;;;;;0.77;0.77;;;;;;;9.52;55.22;100357.91;4186262;34;33831;-89
2024/02/03 03:00:23;;;;;;;1.55;0.70;;;;;;;9.68;54.74;100369.72;4184451;34;34342;-89
2024/02/03 03:03:37;;;;;;;1.92;1.83;;;;;;;9.82;54.41;100354.31;4191465;34;35179;-89
2024/02/03 03:06:49;;;;;;;1.05;0.98;;;;;;;9.63;54.97;100369.00;4181205;34;36020;-89
2024/02/03 03:10:39;;;;;;;7.68;1.73;;;;;;;9.84;53.97;100355.16;4173127;34;33288;-90
2024/02/03 03:34:22;;;;;;;;;;;;;;;;;;;;;
2024/02/03 04:22:03;;;;;;;0.93;0.93;;;;;;;9.68;55.86;100332.78;4145689;34;33924;-87
2024/02/03 04:26:24;;;;;;;0.50;0.50;;;;;;;10.20;54.26;100326.69;4141151;34;34676;-85
2024/02/03 14:05:38;;;;;;;0.17;0.17;;;;;;;14.39;45.80;100294.81;4220125;33;33858;-83
2024/02/03 14:08:07;;;;;;;0.03;0.03;;;;;;;14.08;46.48;100299.00;4206889;33;34991;-82
2024/02/03 14:10:35;;;;;;;0.10;0.10;;;;;;;14.09;46.91;100305.16;4205298;33;35012;-83
2024/02/03 14:13:03;;;;;;;0.00;0.00;;;;;;;14.53;45.89;100305.59;4200333;33;33049;-83
2024/02/03 14:15:32;;;;;;;0.00;0.00;;;;;;;14.83;44.97;100305.78;4204254;33;34011;-83
2024/02/03 14:18:05;;;;;;;0.10;0.10;;;;;;;14.34;46.36;100302.16;4200615;33;34136;-83
2024/02/03 14:20:35;;;;;;;0.15;0.15;;;;;;;14.44;45.85;100303.41;4218931;33;34048;-83
2024/02/03 14:23:04;;;;;;;0.10;0.10;;;;;;;13.86;47.45;100313.41;4216961;33;34155;-83
2024/02/03 14:25:33;;;;;;;0.00;0.00;;;;;;;13.51;48.21;100322.16;4210680;33;33488;-83
2024/02/03 14:28:01;;;;;;;0.15;0.15;;;;;;;13.64;48.16;100333.03;4210443;33;34375;-83
2024/02/03 14:30:29;;;;;;;0.10;0.10;;;;;;;13.71;48.03;100344.22;4213153;33;32508;-83
2024/02/03 14:32:57;;;;;;;1.37;0.82;;;;;;;13.88;47.62;100333.66;4214821;33;33613;-83
2024/02/03 14:35:26;;;;;;;0.00;0.00;;;;;;;13.75;47.74;100351.97;4215693;33;32424;-83
2024/02/03 14:37:54;;;;;;;0.10;0.10;;;;;;;14.02;47.04;100349.78;4197110;33;33917;-83
2024/02/03 14:40:22;;;;;;;0.10;0.10;;;;;;;13.65;47.73;100363.09;4209339;34;33343;-83
2024/02/03 14:42:51;;;;;;;0.20;0.15;;;;;;;13.73;47.76;100368.91;4213760;33;33806;-83
2024/02/03 14:45:19;;;;;;;0.10;0.10;;;;;;;13.64;48.03;100364.88;4199088;33;32569;-83
2024/02/03 14:47:47;;;;;;;0.70;0.50;;;;;;;13.35;49.17;100371.56;4214738;33;33597;-83
2024/02/03 14:50:16;;;;;;;0.13;0.13;;;;;;;13.62;48.41;100376.50;4216781;33;34340;-83
2024/02/03 14:56:50;;;;;;;0.70;0.65;;;;;;;13.79;48.09;100376.56;4211680;33;34132;-83
2024/02/03 15:04:48;;;;;;;0.15;0.15;;;;;;;13.66;48.43;100370.13;4187431;34;33713;-83
2024/02/03 15:08:48;;;;;;;0.40;0.35;;;;;;;13.65;48.69;100374.56;4168028;34;34149;-84
2024/02/03 15:12:26;;;;;;;0.10;0.10;;;;;;;13.62;48.74;100374.69;4173097;34;33751;-83
2024/02/03 15:15:36;;;;;;;0.20;0.20;;;;;;;13.70;48.37;100377.00;4157476;34;33155;-84
2024/02/03 15:18:06;;;;;;;0.15;0.15;;;;;;;13.16;50.00;100375.94;4174264;34;33940;-84
2024/02/03 15:20:36;;;;;;;0.70;0.30;;;;;;;13.62;48.97;100373.84;4162953;34;33387;-84
2024/02/03 15:23:04;;;;;;;0.98;0.65;;;;;;;13.94;47.96;100367.84;4174197;34;33529;-84
2024/02/03 15:25:32;;;;;;;0.40;0.40;;;;;;;13.33;49.62;100360.13;4161767;34;34370;-83
2024/02/03 15:28:03;;;;;;;0.00;0.00;;;;;;;13.55;49.08;100360.88;4172784;34;33935;-83
2024/02/03 15:30:35;;;;;;;0.37;0.37;;;;;;;13.71;48.62;100355.69;4171804;34;34534;-83
2024/02/03 15:33:07;;;;;;;0.35;0.35;;;;;;;13.97;48.25;100358.91;4173259;34;34053;-84
2024/02/03 15:35:35;;;;;;;0.15;0.15;;;;;;;13.67;48.90;100355.91;4158851;34;33129;-83
2024/02/03 15:38:03;;;;;;;0.17;0.17;;;;;;;13.70;48.94;100366.37;4169928;34;32906;-83
2024/02/03 15:40:33;;;;;;;0.47;0.47;;;;;;;13.63;49.09;100360.53;4195992;33;33235;-83
2024/02/03 15:43:25;;;;;;;0.25;0.25;;;;;;;13.51;49.47;100372.56;4211707;33;33632;-84
2024/02/03 15:46:13;;;;;;;0.98;0.50;;;;;;;13.65;49.41;100355.13;4222323;33;33531;-83
2024/02/03 15:48:42;;;;;;;0.30;0.30;;;;;;;13.66;49.31;100364.81;4195261;33;34425;-83
2024/02/03 15:51:12;;;;;;;3.17;1.05;;;;;;;13.83;49.03;100362.22;4193189;33;33209;-84
2024/02/03 15:53:42;;;;;;;1.27;0.43;;;;;;;13.45;49.62;100362.25;4218701;33;32143;-84
2024/02/03 16:03:14;;;;;;;0.28;0.28;;;;;;;13.86;48.87;100356.75;4227667;33;34740;-84
2024/02/03 16:06:40;;;;;;;0.15;0.15;;;;;;;13.65;49.35;100368.41;4216307;33;36139;-84
2024/02/03 20:08:51;;;;;;;0.85;0.52;;;;;;;13.12;52.95;100417.66;4212872;33;31497;-81
2024/02/03 20:11:20;;;;;;;0.35;0.32;;;;;;;13.16;52.70;100411.28;4202841;33;33450;-81
2024/02/03 20:13:49;;;;;;;0.15;0.13;;;;;;;13.16;52.75;100411.28;4212072;33;32460;-81
2024/02/03 20:20:43;;;;;;;0.25;0.25;;;;;;;13.21;52.70;100416.37;4104254;34;34058;-82
2024/02/03 20:24:40;;;;;;;0.43;0.43;;;;;;;13.35;52.21;100423.75;4100339;35;32707;-82
2024/02/03 20:46:48;;;;;;;5.30;0.93;;;;;;;13.05;53.00;100408.22;4076770;35;34244;-81
2024/02/03 23:03:14;;;;;;;;;;;;;;;;;;;;;
2024/02/03 23:09:31;;;;;;;0.00;0.00;;;;;;;11.96;54.17;100375.75;4060019;35;34663;-85
2024/02/03 23:12:00;;;;;;;0.08;0.08;;;;;;;12.08;53.97;100374.38;4051534;34;33811;-86
2024/02/03 23:17:43;;;;;;;0.37;0.10;;;;;;;12.08;53.82;100368.22;4169625;34;33603;-85
2024/02/03 23:20:30;;;;;;;0.05;0.05;;;;;;;12.23;53.45;100367.59;4170919;34;35177;-85
2024/02/03 23:23:18;;;;;;;0.15;0.05;;;;;;;12.05;53.87;100363.91;4183709;34;35740;-86
2024/02/03 23:26:23;;;;;;;0.00;0.00;;;;;;;11.91;54.30;100366.25;4182574;34;33321;-86
2024/02/03 23:29:59;;;;;;;0.00;0.00;;;;;;;11.84;54.63;100365.66;4192141;33;34082;-86
2024/02/03 23:33:12;;;;;;;0.00;0.00;;;;;;;12.13;53.75;100355.66;4163076;34;34042;-86
2024/02/03 23:40:41;;;;;;;0.00;0.00;;;;;;;12.29;53.44;100340.84;4165660;34;33545;-86
2024/02/03 23:44:50;;;;;;;0.20;0.20;;;;;;;12.32;53.16;100330.16;4171189;34;35074;-86
2024/02/03 23:49:28;;;;;;;;;;;;;;;;;;;;;
2024/02/03 23:52:56;;;;;;;0.10;0.10;;;;;;;12.38;53.16;100318.41;4084387;34;34972;-86
2024/02/03 23:56:51;;;;;;;0.00;0.00;;;;;;;12.41;53.04;100324.47;4092817;34;33053;-86
